MDT,Max TemperatureF,Mean TemperatureF,Min TemperatureF,Max Dew PointF,MeanDew PointF,Min DewpointF,Max Humidity, Mean Humidity, Min Humidity, Max Sea Level PressureIn, Mean Sea Level PressureIn, Min Sea Level PressureIn, Max VisibilityMiles, Mean VisibilityMiles, Min VisibilityMiles, Max Wind SpeedMPH, Mean Wind SpeedMPH, Max Gust SpeedMPH,PrecipitationIn, CloudCover, Events, WindDirDegrees
2013-4-1,37,34,30,24,23,21,69,61,52,30.08,30.03,30.00,10,10,10,8,6,,0.00,0,,287
2013-4-2,59,47,35,21,17,13,40,29,17,30.03,29.99,29.96,10,10,10,15,5,17,0.00,0,,266
2013-4-3,66,49,32,28,20,14,47,32,17,30.06,29.99,29.93,10,10,10,24,6,31,0.00,2,,314
2013-4-4,68,51,34,29,25,22,59,39,19,30.06,29.93,29.76,10,10,10,15,5,18,0.00,1,,235
2013-4-5,64,51,37,32,24,15,45,32,19,29.86,29.69,29.60,10,10,10,38,11,46,0.00,2,,269
2013-4-6,61,46,31,27,22,18,56,38,19,29.89,29.82,29.75,10,10,10,29,6,36,0.00,2,,298
2013-4-7,60,46,32,32,25,18,67,44,21,29.75,29.64,29.53,10,10,10,35,9,44,0.00,2,,212
2013-4-8,41,28,15,30,22,12,100,77,54,30.15,29.80,29.53,10,2,0,18,8,23,1.31,6,Fog-Snow,24
2013-4-9,21,17,13,16,12,10,92,80,67,30.42,30.20,30.01,10,2,0,13,4,15,0.47,8,Fog-Snow,11
2013-4-10,28,17,5,18,11,3,92,80,68,30.35,30.18,30.00,10,7,0,10,3,12,T,4,Fog-Snow,112
2013-4-11,42,31,19,30,24,16,84,69,53,29.99,29.91,29.86,10,10,8,20,7,22,T,3,,212
2013-4-12,43,37,30,32,27,20,100,78,56,30.04,29.91,29.80,10,8,1,12,4,15,0.02,4,Snow,116
2013-4-13,53,40,27,36,24,9,85,59,32,29.79,29.48,29.30,10,10,9,38,11,49,T,1,Rain,269
2013-4-14,43,33,23,25,15,-3,92,54,16,29.82,29.66,29.54,10,10,3,29,8,37,T,5,Snow,359
2013-4-15,31,27,22,24,20,17,88,73,58,30.03,29.82,29.70,10,4,0,13,5,15,0.17,8,Fog-Snow,76
2013-4-16,27,23,19,19,17,16,92,83,74,30.24,30.01,29.91,10,2,0,16,7,20,0.45,8,Fog-Snow,26
2013-4-17,27,22,16,19,15,10,92,74,55,30.32,30.16,30.06,10,5,1,12,3,14,0.01,8,Snow,297
2013-4-18,40,26,11,17,12,5,84,60,35,30.30,30.24,30.17,10,10,10,14,5,15,0.00,1,,199
2013-4-19,53,40,26,29,21,14,63,47,30,30.17,29.96,29.81,10,10,10,12,3,13,0.00,1,,239
2013-4-20,58,45,31,29,26,21,75,51,26,29.94,29.85,29.79,10,10,10,28,6,36,0.00,1,,300
2013-4-21,59,45,30,30,23,16,75,47,19,29.99,29.89,29.80,10,10,10,28,6,36,T,0,,292
2013-4-22,31,25,19,28,20,17,96,84,72,30.43,30.20,29.94,10,2,0,16,7,18,0.39,8,Fog-Snow,55
2013-4-23,41,25,9,18,12,2,92,58,24,30.41,30.28,30.16,10,8,2,13,4,13,T,3,Snow,231
2013-4-24,52,38,24,23,16,10,63,44,24,30.24,30.15,30.05,10,10,10,14,4,17,0.00,0,,254
2013-4-25,62,44,26,19,13,4,58,34,10,30.04,29.94,29.83,10,10,10,20,6,22,0.00,0,,282
2013-4-26,69,51,32,22,18,13,47,29,11,30.14,30.06,29.98,10,10,10,17,6,20,0.00,0,,250
2013-4-27,74,58,42,25,20,15,42,27,12,30.11,29.98,29.83,10,10,10,22,7,29,0.00,0,,245
2013-4-28,70,56,42,29,24,18,45,30,15,29.94,29.79,29.72,10,10,10,32,11,40,0.00,1,,271
2013-4-29,67,50,33,30,24,18,53,36,19,29.77,29.60,29.49,10,10,10,22,7,43,0.00,2,,293
2013-4-30,51,40,28,31,28,24,100,70,39,30.14,29.85,29.61,10,7,0,16,7,26,0.32,7,Fog-Snow,12